Loisir ou Compétition : Rejoignez un Club de la Fédération

Résultats

SAMSE SUMMER MINI BIATHLON Sprint U17

ARCON

SPR Dames

Jury de Compétition

Délégué Technique :
GRANDCLEMENT YVES (MJ)
D.T. Adjoint :
BAVEREL BRICE (MJ)
Dir. Epreuve :
LAURENT SYLVANE (MJ)
Chef Pas de Tir :
JEANMONNOT DIDIER (MJ)

Caractéristiques de la Piste

Piste :
Florence BAVEREL
Distance :
4.5 km
Point Haut :
 
Point Bas :
 
Montée Tot. :
 
Montée Max. :
 
Homologation :
 

Pénalité Appliquée :
90.0000
Coefficient :
800

Catégorie :
U17
Style :
L
Type de Tir :
C-D- - - -
Clt Dos Clt/Cat Code An Nom Prénom Com Club Temps Pena Tps Tot Ecart Points
Classés
1 127 1/U17 FFS2671448 2002 PATUREL DORINE MB SCNP ROCHOIS 14:57.4 2-0 14:57.4 00:00.0 90.00
2 117 2/U17 FFS2677081 2002 JEANNIER LEONIE MJ SC VERRIERES 15:02.6 0-0 15:02.6 00:05.2 94.64
3 110 3/U17 FFS2665303 2002 MICHELON OCEANE SA BAUGES S.N 15:04.2 3-1 15:04.2 00:06.8 96.06
4 114 4/U17 FFS2657180 2002 SIBERCHICOT LISA MJ PREMANON SC 15:10.3 1-0 15:10.3 00:12.9 101.50
5 116 5/U17 FFS2655903 2002 BERTRAND FANY SA SC MERIBEL 15:26.9 0-3 15:26.9 00:29.5 116.30
6 105 6/U17 FFS2652071 2002 RICHARD JEANNE MB LES GETS S.C 15:35.9 1-3 15:35.9 00:38.5 124.32
7 131 7/U17 FFS2660755 2002 CLOETENS MAYA DA GUC GRENOBLE 15:43.0 1-0 15:43.0 00:45.6 130.65
8 106 8/U17 FFS2662969 2003 GILBERT JEANSELME LOLA DA CS VILLARD 15:47.5 1-2 15:47.5 00:50.1 134.66
9 134 9/U17 FFS2670556 2002 PENDRY SHAWNA PE SC FTROMEUP2 16:00.5 1-1 16:00.5 01:03.1 146.25
10 102 10/U17 FFS2664314 2002 BARON FIONA MJ VAL MORTEAU 16:01.7 1-1 16:01.7 01:04.3 147.32
11 115 11/U17 FFS2680651 2002 SERRETTE LISA MJ PREMANON SC 16:02.6 3-1 16:02.6 01:05.2 148.12
12 118 12/U17 FFS2671450 2002 SYLVESTRE BARON CLAIRE MB SCNP ROCHOIS 16:09.3 2-1 16:09.3 01:11.9 154.10
13 130 13/U17 FFS2654839 2002 GREAU ALIZEE LY SC BRENOD 16:13.4 2-3 16:13.4 01:16.0 157.75
14 104 14/U17 FFS2681102 2003 BLANC ANNA MJ SC ABBAYE 16:13.5 3-1 16:13.5 01:16.1 157.84
15 121 15/U17 FFS2682651 2002 MORRAL FERANDIS MARIONA PE SC FTROMEUP2 16:16.0 3-2 16:16.0 01:18.6 160.07
16 108 16/U17 FFS2670903 2002 CROS JEANNE MB SC GD BORNAN 16:27.3 2-3 16:27.3 01:29.9 170.14
17 141 17/U17 FFS2654373 2003 LAMBERT TALIA SA SC MERIBEL 16:28.6 2-1 16:28.6 01:31.2 171.30
18 113 18/U17 FFS2676469 2003 BONY VIOLETTE MB DRAGONS ANNY 16:32.6 3-3 16:32.6 01:35.2 174.87
19 157 19/U17 FFS2675691 2003 LEBAY CAROLINE MB PRAZ LYS-SOM 16:33.9 1-1 16:33.9 01:36.5 176.03
20 112 20/U17 FFS2670359 2002 BENED CHLOE MB CHABLAIS NOR 16:44.9 2-4 16:44.9 01:47.5 185.83
21 133 21/U17 FFS2669529 2002 MOUGIN THEA MJ SC GRANDVAUX 16:48.7 3-2 16:48.7 01:51.3 189.22
22 151 22/U17 FFS2660383 2003 MACHUT PAULINE LY SC LE POIZAT 16:51.2 2-1 16:51.2 01:53.8 191.45
23 124 23/U17 FFS2676811 2003 BAVEREL LOANE MJ ES SAUGETTE 16:52.0 2-3 16:52.0 01:54.6 192.16
24 148 24/U17 FFS2670559 2002 SAMSON EMMA PE SC FTROMEUP2 16:57.3 1-2 16:57.3 01:59.9 196.89
25 123 25/U17 FFS2664568 2002 TRIBOULOT JEANNE MV BASS/RUPT SN 16:58.8 2-2 16:58.8 02:01.4 198.22
26 135 26/U17 FFS2670928 2003 SANCHEZ ANNA DA SN CHARTROUS 17:05.5 3-2 17:05.5 02:08.1 204.20
27 128 27/U17 FFS2665498 2002 ROCHE LUDMILLA AP AS EDELWEISS 17:09.2 1-5 17:09.2 02:11.8 207.49
28 144 28/U17 FFS2660923 2003 BESSIERE ELISE DA SNB CHAMROUS 17:12.3 1-2 17:12.3 02:14.9 210.26
29 119 29/U17 FFS2649489 2002 GAILLARD MARGAUX DA SA MEAUDRAIS 17:18.5 2-2 17:18.5 02:21.1 215.79
30 152 30/U17 FFS2654837 2002 CHARVOLIN CANDICE LY SC BRENOD 17:23.9 1-3 17:23.9 02:26.5 220.60
31 158 31/U17 FFS2681114 2003 HUYGHE LOU MJ SC ABBAYE 17:25.5 3-3 17:25.5 02:28.1 222.03
32 109 32/U17 FFS2675560 2002 CHOUARD JULIETTE MJ SC GRANDVAUX 17:25.9 3-3 17:25.9 02:28.5 222.38
33 103 33/U17 FFS2661517 2002 LAUTH EVA DA VERCORS SKF 17:26.4 0-2 17:26.4 02:29.0 222.83
34 111 34/U17 FFS2660687 2002 GRUNEWALD ELEONORE DA VERCORS SKF 17:27.6 2-2 17:27.6 02:30.2 223.90
35 154 35/U17 FFS2675805 2002 BESANCON ALICE MJ OLYMP MT DOR 17:31.3 2-0 17:31.3 02:33.9 227.20
36 122 36/U17 FFS2671188 2002 PELLEGRINI AUGUSTINE MJ OYE-PALLET 17:31.4 3-1 17:31.4 02:34.0 227.29
37 126 37/U17 FFS2664469 2003 MARCINIAK JULIE MB CS MEGEVE 17:38.6 3-1 17:38.6 02:41.2 233.70
38 153 38/U17 FFS2655092 2003 FERRER EVA LUNA MB VILLARD/BOEG 17:41.8 2-2 17:41.8 02:44.4 236.56
39 161 39/U17 FFS2675771 2003 DUPONT CHLOE MB DRAGONS ANNY 17:42.2 4-1 17:42.2 02:44.8 236.91
40 140 40/U17 FFS2670453 2003 LANCHAIS MANON SA CS LA FECLAZ 17:42.6 2-2 17:42.6 02:45.2 237.27
41 136 41/U17 FFS2666106 2002 VIGNEAU LUCIE MB CHABLAIS NOR 18:10.1 4-0 18:10.1 03:12.7 261.79
42 107 42/U17 FFS2666812 2002 TAFFIN NINA SA SC PEISEY VA 18:13.8 2-1 18:13.8 03:16.4 265.08
43 101 43/U17 FFS2661232 2002 JEANGEORGES ANAIS MV BASS/RUPT SN 18:17.1 2-3 18:17.1 03:19.7 268.03
44 129 44/U17 FFS2659929 2002 CERDAN ANNOUK LY US CORMARANC 18:17.8 4-1 18:17.8 03:20.4 268.65
45 120 45/U17 FFS2669082 2002 ELOY LILOU SA COURCHEVEL 18:19.1 2-3 18:19.1 03:21.7 269.81
46 143 46/U17 FFS2665168 2003 RAOULT ZOE SA SC BOZEL 18:20.7 2-3 18:20.7 03:23.3 271.23
47 149 47/U17 FFS2666103 2003 GERARD GESLIN MAILYS SA SC ARECHES 18:27.2 1-4 18:27.2 03:29.8 277.03
48 155 48/U17 FFS2670595 2003 COURTIEU MARGOT SA CS LA FECLAZ 18:30.5 2-0 18:30.5 03:33.1 279.97
49 132 49/U17 FFS2670580 2003 BESSON LEONIE AP AS EDELWEISS 18:32.6 2-4 18:32.6 03:35.2 281.84
50 156 50/U17 FFS2683910 2003 COURVOISIER LEA MJ SC MONT NOIR 18:37.9 3-3 18:37.9 03:40.5 286.57
51 142 51/U17 FFS2670449 2003 BROUTIER AMELIE SA BAUGES S.N 18:59.7 1-4 18:59.7 04:02.3 306.00
52 163 52/U17 FFS2696204 2003 CROCOMBETTE ELISE DA CS VILLARD 19:05.8 3-1 19:05.8 04:08.4 311.44
53 145 53/U17 FFS2654667 2002 ANDREANI LUCILE DA CO 7 LAUX GR 19:07.7 3-3 19:07.7 04:10.3 313.13
54 125 54/U17 FFS2677085 2003 PELLEGRINI LILLY MJ OYE-PALLET 19:33.5 3-4 19:33.5 04:36.1 336.13
55 159 55/U17 FFS2682602 2003 LEGENDRE TYFAINE MJ A.S MOUTHE 19:38.8 1-3 19:38.8 04:41.4 340.86
56 162 56/U17 FFS2653135 2003 BEAUDOING ZOE DA CS VILLARD 19:56.6 1-3 19:56.6 04:59.2 356.73
57 138 57/U17 FFS2683259 2003 ARDIET ELEONORE MJ A.S MOUTHE 20:06.7 4-4 20:06.7 05:09.3 365.73
58 146 58/U17 FFS2670317 2003 GRAILLOT BUNING HANNA MV MOLSHEIM SN 20:09.8 3-2 20:09.8 05:12.4 368.49
59 139 59/U17 FFS2670594 2003 CAVORET LILOU SA CS LA FECLAZ 20:11.7 3-3 20:11.7 05:14.3 370.19
60 150 60/U17 FFS2670608 2003 VALETTE LAURE SA CS LA FECLAZ 21:36.6 5-5 21:36.6 06:39.2 445.87
61 160 61/U17 FFS2682542 2003 LECOULTRE LARA MJ OLYMP MT DOR 25:58.1 2-4 25:58.1 11:00.7 678.99
Non partants
137 FFS2671253 2003 BOLE ISALINE MJ CSR PONTARLI
147 FFS2680222 2003 POENSIN PAULINE MB CS CHAMONIX